createdAt,value
2023-01-22T00:00:39.680Z,8.73
2023-01-22T00:03:07.144Z,7.32
2023-01-22T00:05:34.301Z,8.93
2023-01-22T00:08:01.555Z,8.20
2023-01-22T00:10:28.997Z,6.50
2023-01-22T00:12:56.152Z,6.72
2023-01-22T00:15:23.297Z,6.45
2023-01-22T00:17:50.806Z,7.93
2023-01-22T00:20:18.292Z,7.10
2023-01-22T00:22:45.512Z,8.35
2023-01-22T00:25:13.967Z,7.32
2023-01-22T00:27:41.863Z,6.00
2023-01-22T00:30:09.635Z,6.57
2023-01-22T00:32:37.103Z,6.20
2023-01-22T00:35:04.683Z,8.35
2023-01-22T00:37:31.868Z,7.87
2023-01-22T00:40:00.139Z,6.65
2023-01-22T00:42:27.395Z,7.55
2023-01-22T00:44:54.629Z,8.88
2023-01-22T00:47:22.078Z,7.85
2023-01-22T00:49:49.311Z,6.70
2023-01-22T00:52:17.887Z,8.23
2023-01-22T00:54:45.656Z,6.75
2023-01-22T00:57:12.979Z,6.75
2023-01-22T00:59:40.184Z,9.02
2023-01-22T01:02:07.854Z,9.65
2023-01-22T01:04:35.064Z,8.65
2023-01-22T01:07:02.268Z,7.40
2023-01-22T01:09:29.754Z,7.45
2023-01-22T01:11:58.801Z,8.20
2023-01-22T01:14:26.387Z,7.25
2023-01-22T01:16:54.698Z,8.20
2023-01-22T01:19:21.914Z,7.22
2023-01-22T01:21:51.242Z,6.35
2023-01-22T01:24:18.750Z,7.03
2023-01-22T01:26:45.891Z,6.18
2023-01-22T01:29:13.133Z,6.90
2023-01-22T01:31:40.732Z,8.15
2023-01-22T01:34:08.764Z,6.45
2023-01-22T01:36:48.304Z,7.20
2023-01-22T01:39:16.742Z,6.10
2023-01-22T01:41:43.909Z,6.32
2023-01-22T01:44:15.487Z,8.80
2023-01-22T01:46:49.960Z,7.87
2023-01-22T01:51:47.083Z,6.05
2023-01-22T01:54:15.595Z,9.05
2023-01-22T01:56:52.183Z,6.30
2023-01-22T01:59:21.721Z,7.70
2023-01-22T02:01:53.828Z,7.12
2023-01-22T02:04:21.584Z,8.68
2023-01-22T02:06:48.737Z,7.43
2023-01-22T02:09:16.167Z,7.35
2023-01-22T02:11:43.847Z,6.40
2023-01-22T02:14:14.620Z,8.95
2023-01-22T02:16:42.296Z,5.82
2023-01-22T02:19:09.527Z,7.25
2023-01-22T02:21:42.012Z,7.18
2023-01-22T02:24:12.060Z,7.15
2023-01-22T02:26:40.375Z,7.97
2023-01-22T02:29:10.251Z,6.90
2023-01-22T02:31:39.065Z,6.75
2023-01-22T02:34:07.377Z,6.75
2023-01-22T02:36:37.491Z,7.53
2023-01-22T02:39:05.938Z,7.25
2023-01-22T02:41:33.368Z,5.47
2023-01-22T02:44:00.679Z,7.72
2023-01-22T02:46:30.392Z,7.53
2023-01-22T02:48:57.613Z,9.02
2023-01-22T02:51:26.625Z,5.65
2023-01-22T02:53:54.464Z,5.95
2023-01-22T02:56:21.947Z,6.97
2023-01-22T02:58:49.283Z,6.00
2023-01-22T03:01:22.614Z,8.90
2023-01-22T03:03:54.154Z,7.10
2023-01-22T03:06:23.306Z,8.43
2023-01-22T03:08:53.444Z,7.30
2023-01-22T03:11:20.982Z,6.30
2023-01-22T03:14:08.887Z,5.87
2023-01-22T03:16:54.765Z,5.35
2023-01-22T03:19:42.201Z,6.43
2023-01-22T03:22:11.647Z,6.12
2023-01-22T03:24:39.094Z,6.75
2023-01-22T03:27:06.856Z,5.12
2023-01-22T03:29:38.451Z,4.40
2023-01-22T03:32:07.495Z,5.28
2023-01-22T03:34:35.115Z,7.35
2023-01-22T03:37:04.705Z,5.82
2023-01-22T03:39:32.985Z,7.40
2023-01-22T03:42:02.576Z,5.30
2023-01-22T03:44:29.904Z,6.45
2023-01-22T03:46:57.717Z,5.50
2023-01-22T03:49:25.267Z,4.95
2023-01-22T03:51:52.517Z,5.82
2023-01-22T03:54:19.973Z,5.10
2023-01-22T03:56:48.164Z,5.78
2023-01-22T03:59:15.819Z,4.25
2023-01-22T04:01:43.433Z,5.50
2023-01-22T04:04:11.864Z,6.15
2023-01-22T04:06:40.979Z,5.25
2023-01-22T04:09:08.395Z,5.55
2023-01-22T04:11:36.786Z,5.12
2023-01-22T04:14:06.789Z,5.53
2023-01-22T04:16:34.181Z,6.95
2023-01-22T04:19:04.045Z,6.93
2023-01-22T04:21:31.695Z,17.85
2023-01-22T04:23:59.086Z,6.82
2023-01-22T04:26:26.583Z,7.65
2023-01-22T04:28:56.047Z,8.70
2023-01-22T04:31:23.481Z,6.80
2023-01-22T04:33:51.228Z,14.27
2023-01-22T04:36:19.314Z,7.62
2023-01-22T04:38:46.661Z,7.28
2023-01-22T04:41:14.143Z,7.78
2023-01-22T04:43:41.329Z,6.70
2023-01-22T04:46:08.532Z,7.95
2023-01-22T04:48:36.773Z,11.77
2023-01-22T04:51:04.264Z,8.88
2023-01-22T04:53:31.758Z,7.20
2023-01-22T04:55:59.347Z,8.85
2023-01-22T04:58:26.637Z,8.82
2023-01-22T05:00:58.911Z,8.70
2023-01-22T05:03:27.219Z,7.20
2023-01-22T05:05:54.542Z,9.20
2023-01-22T05:08:22.079Z,6.85
2023-01-22T05:10:50.840Z,5.18
2023-01-22T05:13:18.321Z,6.25
2023-01-22T05:15:45.501Z,9.02
2023-01-22T05:18:13.100Z,9.48
2023-01-22T05:20:40.632Z,11.98
2023-01-22T05:23:08.107Z,17.08
2023-01-22T05:25:36.179Z,27.80
2023-01-22T05:28:03.758Z,23.80
2023-01-22T05:30:31.207Z,21.10
2023-01-22T05:32:58.967Z,11.00
2023-01-22T05:35:26.560Z,14.73
2023-01-22T05:37:53.912Z,13.65
2023-01-22T05:40:22.828Z,25.25
2023-01-22T05:42:50.002Z,26.02
2023-01-22T05:45:17.327Z,19.80
2023-01-22T05:47:45.336Z,20.45
2023-01-22T05:50:12.675Z,16.70
2023-01-22T05:52:39.825Z,21.37
2023-01-22T05:55:08.363Z,20.20
2023-01-22T05:57:36.931Z,14.57
2023-01-22T06:00:05.191Z,33.53
2023-01-22T06:02:44.056Z,35.75
2023-01-22T06:05:12.229Z,37.75
2023-01-22T06:07:40.392Z,28.90
2023-01-22T06:10:08.195Z,28.45
2023-01-22T06:12:36.532Z,27.92
2023-01-22T06:15:04.394Z,28.75
2023-01-22T06:17:31.593Z,24.37
2023-01-22T06:20:00.372Z,17.92
2023-01-22T06:22:27.707Z,27.30
2023-01-22T06:24:55.067Z,29.92
2023-01-22T06:27:23.048Z,49.83
2023-01-22T06:29:50.816Z,54.10
2023-01-22T06:32:18.078Z,46.85
2023-01-22T06:34:45.551Z,153.87
2023-01-22T06:37:13.116Z,304.58
2023-01-22T06:39:40.451Z,213.02
2023-01-22T06:42:08.401Z,85.28
2023-01-22T06:44:35.579Z,34.75
2023-01-22T06:47:03.741Z,23.75
2023-01-22T06:49:31.357Z,12.02
2023-01-22T06:51:58.540Z,27.80
2023-01-22T06:54:25.742Z,33.42
2023-01-22T06:56:53.625Z,33.90
2023-01-22T06:59:21.061Z,39.10
2023-01-22T07:01:48.259Z,28.73
2023-01-22T07:04:15.772Z,30.52
2023-01-22T07:06:43.772Z,21.62
2023-01-22T07:09:10.927Z,22.60
2023-01-22T07:11:38.410Z,26.35
2023-01-22T07:14:05.595Z,21.10
2023-01-22T07:16:32.779Z,17.60
2023-01-22T07:19:00.453Z,12.20
2023-01-22T07:21:27.645Z,13.98
2023-01-22T07:23:54.913Z,8.20
2023-01-22T07:26:22.365Z,7.97
2023-01-22T07:28:49.582Z,9.38
2023-01-22T07:31:16.733Z,7.30
2023-01-22T07:33:44.257Z,8.15
2023-01-22T07:36:11.372Z,6.22
2023-01-22T07:38:38.592Z,7.20
2023-01-22T07:41:16.894Z,7.35
2023-01-22T07:43:52.569Z,7.90
2023-01-22T07:46:20.103Z,6.75
2023-01-22T07:48:47.252Z,5.55
2023-01-22T07:51:14.550Z,5.70
2023-01-22T07:53:42.797Z,5.90
2023-01-22T07:56:10.052Z,7.07
2023-01-22T07:58:37.309Z,9.60
2023-01-22T08:01:06.423Z,8.68
2023-01-22T08:03:34.193Z,8.50
2023-01-22T08:06:01.413Z,9.07
2023-01-22T08:08:28.479Z,10.00
2023-01-22T08:10:59.360Z,9.10
2023-01-22T08:13:26.590Z,9.25
2023-01-22T08:15:55.088Z,7.50
2023-01-22T08:18:23.080Z,7.50
2023-01-22T08:20:50.279Z,8.65
2023-01-22T08:23:17.480Z,9.07
2023-01-22T08:25:44.874Z,8.57
2023-01-22T08:28:11.995Z,16.62
2023-01-22T08:30:46.098Z,9.40
2023-01-22T08:33:15.950Z,10.80
2023-01-22T08:35:43.272Z,10.30
2023-01-22T08:38:10.382Z,10.50
2023-01-22T08:40:38.212Z,8.57
2023-01-22T08:43:05.437Z,11.52
2023-01-22T08:45:32.855Z,9.05
2023-01-22T08:48:00.346Z,9.77
2023-01-22T08:50:29.336Z,9.70
2023-01-22T08:52:57.896Z,10.90
2023-01-22T08:55:27.651Z,10.02
2023-01-22T08:57:58.567Z,9.52
2023-01-22T09:00:26.417Z,12.88
2023-01-22T09:02:57.427Z,12.70
2023-01-22T09:05:24.527Z,12.25
2023-01-22T09:07:51.987Z,13.45
2023-01-22T09:10:21.531Z,12.35
2023-01-22T09:12:49.064Z,9.82
2023-01-22T09:15:16.568Z,10.75
2023-01-22T09:17:43.658Z,9.55
2023-01-22T09:20:10.824Z,12.25
2023-01-22T09:22:38.245Z,12.37
2023-01-22T09:25:05.901Z,11.23
2023-01-22T09:27:33.005Z,10.20
2023-01-22T09:30:00.399Z,11.95
2023-01-22T09:32:27.541Z,12.43
2023-01-22T09:34:54.645Z,12.40
2023-01-22T09:37:22.221Z,10.45
2023-01-22T09:39:49.994Z,11.45
2023-01-22T09:42:28.437Z,10.80
2023-01-22T09:44:59.615Z,12.85
2023-01-22T09:47:47.665Z,11.52
2023-01-22T09:50:22.678Z,10.60
2023-01-22T09:52:55.115Z,10.43
2023-01-22T09:55:24.905Z,9.55
2023-01-22T09:57:55.336Z,8.63
2023-01-22T10:00:56.432Z,11.55
2023-01-22T10:03:30.437Z,11.30
2023-01-22T10:06:02.220Z,10.38
2023-01-22T10:08:33.921Z,10.75
2023-01-22T10:11:01.276Z,10.40
2023-01-22T10:13:34.068Z,13.13
2023-01-22T10:16:01.790Z,13.32
2023-01-22T10:18:50.502Z,10.07
2023-01-22T10:21:26.576Z,12.65
2023-01-22T10:23:56.181Z,12.13
2023-01-22T10:26:35.693Z,10.45
2023-01-22T10:29:12.712Z,12.68
2023-01-22T10:31:46.628Z,10.55
2023-01-22T10:34:23.792Z,11.02
2023-01-22T10:36:52.863Z,10.38
2023-01-22T10:39:20.956Z,11.90
2023-01-22T10:41:49.050Z,13.40
2023-01-22T10:44:16.377Z,12.95
2023-01-22T10:46:43.863Z,14.85
2023-01-22T10:49:21.228Z,12.15
2023-01-22T10:51:55.496Z,11.27
2023-01-22T10:54:39.775Z,12.80
2023-01-22T10:57:22.498Z,12.45
2023-01-22T11:00:05.838Z,13.13
2023-01-22T11:02:35.358Z,13.18
2023-01-22T11:05:19.050Z,13.68
2023-01-22T11:07:48.731Z,10.85
2023-01-22T11:10:34.756Z,9.63
2023-01-22T11:13:15.533Z,12.55
2023-01-22T11:16:11.831Z,10.43
2023-01-22T11:18:42.308Z,13.95
2023-01-22T11:21:18.783Z,12.10
2023-01-22T11:23:46.272Z,13.77
2023-01-22T11:26:35.176Z,12.63
2023-01-22T11:29:20.747Z,14.80
2023-01-22T11:32:00.009Z,13.57
2023-01-22T11:35:07.602Z,13.77
2023-01-22T11:38:05.031Z,16.50
2023-01-22T11:40:35.318Z,15.38
2023-01-22T11:43:22.168Z,13.48
2023-01-22T11:45:53.989Z,12.98
2023-01-22T11:48:27.105Z,12.82
2023-01-22T11:51:21.973Z,13.77
2023-01-22T11:54:01.244Z,15.07
2023-01-22T11:56:46.224Z,12.50
2023-01-22T12:02:39.126Z,12.95
2023-01-22T12:05:30.668Z,18.67
2023-01-22T12:08:15.064Z,17.00
2023-01-22T12:11:01.398Z,20.23
2023-01-22T12:13:53.563Z,16.50
2023-01-22T12:16:43.665Z,14.85
2023-01-22T12:19:13.665Z,16.35
2023-01-22T12:22:31.909Z,15.70
2023-01-22T12:25:12.804Z,15.45
2023-01-22T12:27:49.971Z,14.43
2023-01-22T12:30:56.147Z,16.85
2023-01-22T12:33:34.898Z,19.10
2023-01-22T12:36:03.039Z,16.00
2023-01-22T12:38:33.301Z,14.95
2023-01-22T12:41:21.565Z,15.52
2023-01-22T12:43:57.243Z,15.77
2023-01-22T12:46:42.771Z,16.58
2023-01-22T12:49:11.952Z,16.15
2023-01-22T12:51:47.615Z,16.45
2023-01-22T12:54:22.813Z,16.45
2023-01-22T12:56:51.920Z,18.52
2023-01-22T12:59:42.106Z,17.33
2023-01-22T13:02:35.572Z,21.37
2023-01-22T13:05:48.424Z,14.10
2023-01-22T13:08:15.487Z,15.88
2023-01-22T13:10:59.278Z,17.45
2023-01-22T13:13:36.189Z,17.48
2023-01-22T13:16:24.318Z,20.73
2023-01-22T13:18:53.537Z,19.67
2023-01-22T13:21:30.197Z,19.52
2023-01-22T13:23:59.742Z,17.12
2023-01-22T13:26:30.070Z,15.98
2023-01-22T13:29:00.455Z,22.83
2023-01-22T13:31:28.180Z,19.83
2023-01-22T13:34:09.921Z,18.92
2023-01-22T13:36:39.428Z,21.20
2023-01-22T13:39:06.612Z,20.23
2023-01-22T13:41:38.423Z,16.87
2023-01-22T13:44:07.532Z,21.02
2023-01-22T13:46:38.528Z,19.30
2023-01-22T13:49:19.069Z,28.92
2023-01-22T13:51:46.615Z,20.75
2023-01-22T13:54:42.963Z,21.05
2023-01-22T13:57:21.896Z,20.55
2023-01-22T13:59:59.174Z,17.35
2023-01-22T14:02:37.387Z,17.45
2023-01-22T14:05:05.174Z,20.80
2023-01-22T14:07:34.667Z,21.08
2023-01-22T14:10:21.960Z,22.62
2023-01-22T14:13:13.354Z,29.83
2023-01-22T14:15:41.419Z,23.95
2023-01-22T14:18:14.647Z,24.63
2023-01-22T14:20:43.265Z,21.50
2023-01-22T14:23:11.086Z,22.50
2023-01-22T14:25:39.724Z,24.00
2023-01-22T14:28:07.073Z,28.15
2023-01-22T14:30:34.754Z,21.85
2023-01-22T14:33:02.204Z,26.33
2023-01-22T14:35:29.350Z,22.62
2023-01-22T14:37:57.025Z,26.05
2023-01-22T14:40:25.971Z,23.85
2023-01-22T14:42:53.218Z,24.70
2023-01-22T14:45:21.412Z,21.60
2023-01-22T14:47:51.044Z,23.23
2023-01-22T14:50:19.210Z,23.17
2023-01-22T14:52:47.825Z,28.20
2023-01-22T14:55:14.971Z,24.85
2023-01-22T14:57:42.064Z,25.77
2023-01-22T15:00:12.940Z,26.83
2023-01-22T15:02:41.613Z,25.98
2023-01-22T15:05:10.190Z,25.73
2023-01-22T15:07:38.169Z,27.33
2023-01-22T15:10:07.138Z,27.87
2023-01-22T15:12:34.504Z,29.77
2023-01-22T15:15:02.096Z,24.98
2023-01-22T15:17:29.303Z,32.55
2023-01-22T15:19:57.183Z,32.03
2023-01-22T15:22:24.645Z,35.00
2023-01-22T15:24:51.755Z,47.60
2023-01-22T15:27:19.055Z,44.38
2023-01-22T15:29:46.787Z,63.33
2023-01-22T15:32:14.464Z,56.25
2023-01-22T15:34:41.612Z,74.28
2023-01-22T15:37:09.525Z,44.35
2023-01-22T15:39:36.585Z,38.63
2023-01-22T15:42:03.847Z,40.00
2023-01-22T15:44:31.349Z,74.07
2023-01-22T15:47:00.963Z,99.87
2023-01-22T15:49:28.166Z,57.97
2023-01-22T15:51:55.698Z,61.67
2023-01-22T15:54:25.538Z,50.10
2023-01-22T15:56:53.109Z,51.58
2023-01-22T15:59:20.452Z,52.90
2023-01-22T16:01:47.895Z,42.20
2023-01-22T16:04:15.280Z,43.42
2023-01-22T16:06:42.427Z,37.15
2023-01-22T16:09:09.600Z,42.38
2023-01-22T16:11:37.219Z,35.95
2023-01-22T16:14:04.517Z,34.17
2023-01-22T16:16:34.912Z,33.15
2023-01-22T16:19:04.529Z,33.20
2023-01-22T16:21:31.877Z,32.60
2023-01-22T16:24:00.446Z,32.38
2023-01-22T16:26:32.088Z,34.97
2023-01-22T16:29:00.956Z,39.40
2023-01-22T16:31:30.902Z,36.20
2023-01-22T16:34:00.391Z,39.42
2023-01-22T16:36:29.597Z,36.33
2023-01-22T16:38:57.050Z,41.20
2023-01-22T16:41:29.872Z,43.17
2023-01-22T16:44:01.792Z,45.50
2023-01-22T16:46:32.056Z,34.20
2023-01-22T16:49:02.967Z,30.48
2023-01-22T16:51:38.554Z,32.42
2023-01-22T16:54:06.941Z,32.63
2023-01-22T16:56:35.200Z,36.05
2023-01-22T16:59:02.667Z,32.85
2023-01-22T17:01:30.365Z,35.40
2023-01-22T17:03:57.657Z,30.95
2023-01-22T17:06:29.354Z,31.02
2023-01-22T17:08:56.879Z,27.62
2023-01-22T17:11:24.212Z,33.20
2023-01-22T17:13:51.792Z,31.90
2023-01-22T17:16:19.515Z,34.13
2023-01-22T17:18:46.926Z,32.47
2023-01-22T17:21:17.756Z,30.45
2023-01-22T17:23:45.458Z,33.42
2023-01-22T17:26:14.680Z,36.97
2023-01-22T17:28:42.220Z,38.35
2023-01-22T17:31:15.586Z,39.85
2023-01-22T17:33:43.482Z,38.67
2023-01-22T17:36:13.547Z,40.22
2023-01-22T17:38:41.372Z,40.25
2023-01-22T17:41:09.898Z,33.92
2023-01-22T17:43:38.761Z,39.03
2023-01-22T17:46:11.596Z,41.90
2023-01-22T17:48:39.956Z,40.45
2023-01-22T17:51:09.912Z,40.12
2023-01-22T17:53:39.343Z,40.20
2023-01-22T17:56:07.836Z,45.10
2023-01-22T17:58:35.426Z,40.65
2023-01-22T18:01:04.707Z,45.22
2023-01-22T18:03:32.452Z,42.83
2023-01-22T18:05:59.675Z,45.75
2023-01-22T18:08:29.098Z,47.17
2023-01-22T18:10:57.529Z,41.13
2023-01-22T18:13:25.728Z,44.08
2023-01-22T18:15:53.049Z,48.55
2023-01-22T18:18:20.650Z,54.53
2023-01-22T18:20:48.126Z,42.85
2023-01-22T18:23:16.013Z,44.13
2023-01-22T18:25:47.291Z,46.20
2023-01-22T18:28:14.987Z,51.75
2023-01-22T18:30:42.625Z,62.75
2023-01-22T18:33:13.740Z,63.53
2023-01-22T18:35:50.786Z,65.00
2023-01-22T18:38:26.144Z,56.85
2023-01-22T18:40:53.498Z,65.60
2023-01-22T18:43:24.814Z,70.93
2023-01-22T18:45:51.999Z,56.72
2023-01-22T18:48:21.043Z,43.35
2023-01-22T18:50:53.171Z,39.85
2023-01-22T18:53:20.576Z,31.60
2023-01-22T18:55:47.818Z,30.73
2023-01-22T18:58:31.050Z,33.60
2023-01-22T19:01:08.214Z,29.85
2023-01-22T19:03:36.410Z,34.35
2023-01-22T19:06:13.553Z,28.17
2023-01-22T19:08:43.120Z,32.05
2023-01-22T19:11:12.249Z,27.70
2023-01-22T19:13:40.744Z,29.45
2023-01-22T19:16:10.989Z,26.80
2023-01-22T19:18:40.065Z,30.00
2023-01-22T19:21:12.010Z,29.37
2023-01-22T19:23:39.227Z,32.33
2023-01-22T19:26:22.992Z,31.02
2023-01-22T19:28:53.335Z,29.92
2023-01-22T19:31:21.851Z,27.83
2023-01-22T19:33:51.015Z,28.60
2023-01-22T19:36:22.666Z,29.60
2023-01-22T19:38:50.486Z,25.23
2023-01-22T19:41:17.732Z,26.52
2023-01-22T19:43:45.194Z,27.77
2023-01-22T19:46:16.632Z,28.80
2023-01-22T19:48:44.239Z,27.75
2023-01-22T19:51:13.458Z,28.95
2023-01-22T19:53:41.215Z,27.45
2023-01-22T19:56:29.650Z,36.65
2023-01-22T19:59:03.113Z,35.78
2023-01-22T20:01:30.287Z,31.00
2023-01-22T20:03:57.805Z,35.78
2023-01-22T20:06:25.324Z,50.03
2023-01-22T20:08:55.386Z,48.03
2023-01-22T20:11:23.298Z,47.28
2023-01-22T20:13:50.514Z,46.00
2023-01-22T20:16:20.780Z,44.47
2023-01-22T20:18:49.130Z,43.67
2023-01-22T20:21:17.041Z,37.08
2023-01-22T20:23:45.615Z,37.63
2023-01-22T20:26:14.259Z,33.08
2023-01-22T20:28:41.470Z,31.55
2023-01-22T20:31:12.972Z,37.15
2023-01-22T20:33:43.816Z,35.95
2023-01-22T20:36:15.103Z,47.65
2023-01-22T20:38:44.676Z,77.65
2023-01-22T20:41:12.362Z,93.10
2023-01-22T20:43:40.854Z,75.12
2023-01-22T20:46:17.493Z,83.40
2023-01-22T20:48:48.357Z,112.88
2023-01-22T20:51:22.137Z,70.35
2023-01-22T20:53:50.452Z,64.50
2023-01-22T20:56:28.403Z,68.03
2023-01-22T20:58:57.460Z,61.70
2023-01-22T21:01:25.357Z,55.38
2023-01-22T21:03:53.763Z,61.15
2023-01-22T21:06:21.139Z,67.97
2023-01-22T21:08:51.328Z,66.07
2023-01-22T21:11:20.414Z,57.53
2023-01-22T21:13:48.749Z,49.90
2023-01-22T21:16:26.422Z,46.45
2023-01-22T21:18:58.764Z,45.67
2023-01-22T21:21:26.215Z,45.95
2023-01-22T21:23:54.474Z,50.55
2023-01-22T21:26:24.073Z,49.83
2023-01-22T21:29:01.033Z,40.58
2023-01-22T21:31:28.437Z,47.22
2023-01-22T21:34:03.008Z,63.70
2023-01-22T21:39:18.755Z,66.85
2023-01-22T21:41:46.150Z,77.95
2023-01-22T21:44:34.052Z,75.28
2023-01-22T21:47:01.401Z,62.28
2023-01-22T21:49:29.301Z,51.08
2023-01-22T21:51:58.914Z,46.70
2023-01-22T21:54:36.992Z,49.50
2023-01-22T21:57:05.188Z,63.35
2023-01-22T21:59:32.681Z,57.70
2023-01-22T22:01:59.833Z,67.18
2023-01-22T22:04:27.723Z,59.38
2023-01-22T22:06:54.863Z,55.78
2023-01-22T22:09:24.877Z,48.87
2023-01-22T22:11:55.965Z,41.13
2023-01-22T22:14:24.392Z,38.05
2023-01-22T22:16:52.589Z,41.58
2023-01-22T22:19:20.299Z,36.55
2023-01-22T22:21:47.752Z,33.40
2023-01-22T22:24:15.259Z,30.75
2023-01-22T22:26:42.352Z,39.13
2023-01-22T22:29:09.902Z,38.25
2023-01-22T22:31:37.888Z,38.97
2023-01-22T22:34:05.332Z,39.92
2023-01-22T22:36:32.953Z,54.40
2023-01-22T22:39:01.327Z,54.28
2023-01-22T22:41:31.281Z,51.67
2023-01-22T22:43:59.062Z,65.72
2023-01-22T22:46:32.063Z,78.95
2023-01-22T22:49:01.422Z,53.40
2023-01-22T22:51:31.642Z,44.28
2023-01-22T22:54:01.761Z,35.28
2023-01-22T22:56:29.717Z,38.05
2023-01-22T22:58:58.902Z,41.65
2023-01-22T23:01:26.495Z,51.03
2023-01-22T23:03:54.307Z,53.60
2023-01-22T23:06:27.288Z,66.05
2023-01-22T23:09:09.771Z,50.72
2023-01-22T23:11:38.190Z,57.05
2023-01-22T23:14:05.923Z,48.50
2023-01-22T23:16:36.334Z,46.65
2023-01-22T23:19:06.361Z,40.67
2023-01-22T23:21:41.273Z,63.45
2023-01-22T23:24:13.035Z,64.45
2023-01-22T23:26:41.790Z,57.62
2023-01-22T23:29:10.987Z,47.97
2023-01-22T23:31:39.319Z,42.70
2023-01-22T23:34:10.870Z,41.25
2023-01-22T23:36:39.490Z,40.17
2023-01-22T23:39:06.875Z,39.88
2023-01-22T23:41:33.957Z,43.25
2023-01-22T23:44:01.223Z,32.22
2023-01-22T23:46:30.850Z,39.95
2023-01-22T23:48:59.100Z,39.30
2023-01-22T23:51:26.957Z,39.22
2023-01-22T23:53:54.845Z,32.15
2023-01-22T23:56:24.911Z,34.72
2023-01-22T23:58:55.899Z,30.05
